createdAt,value
2023-04-28T00:00:28.281Z,80.43
2023-04-28T00:03:09.337Z,80.76
2023-04-28T00:05:41.389Z,80.37
2023-04-28T00:08:13.592Z,81.26
2023-04-28T00:10:45.311Z,81.75
2023-04-28T00:13:17.073Z,80.62
2023-04-28T00:15:50.682Z,81.08
2023-04-28T00:18:22.845Z,81.64
2023-04-28T00:21:02.169Z,81.22
2023-04-28T00:23:33.842Z,81.08
2023-04-28T00:26:06.368Z,81.14
2023-04-28T00:28:38.260Z,80.70
2023-04-28T00:31:16.904Z,82.10
2023-04-28T00:33:48.651Z,81.70
2023-04-28T00:36:20.396Z,82.28
2023-04-28T00:38:52.058Z,82.59
2023-04-28T00:41:23.847Z,83.69
2023-04-28T00:43:55.508Z,82.67
2023-04-28T00:46:34.757Z,82.86
2023-04-28T00:49:06.536Z,84.82
2023-04-28T00:51:38.162Z,85.28
2023-04-28T00:54:13.420Z,84.96
2023-04-28T00:56:45.693Z,84.58
2023-04-28T00:59:17.568Z,83.86
2023-04-28T01:01:50.631Z,84.74
2023-04-28T01:04:23.225Z,86.07
2023-04-28T01:06:59.241Z,84.62
2023-04-28T01:09:31.209Z,86.83
2023-04-28T01:12:05.932Z,87.09
2023-04-28T01:14:37.615Z,86.62
2023-04-28T01:17:12.590Z,87.76
2023-04-28T01:19:46.633Z,87.02
2023-04-28T01:22:20.644Z,87.22
2023-04-28T01:24:52.340Z,88.19
2023-04-28T01:27:24.002Z,88.31
2023-04-28T01:29:56.017Z,88.27
2023-04-28T01:32:27.753Z,88.84
2023-04-28T01:34:59.652Z,89.55
2023-04-28T01:37:33.625Z,90.47
2023-04-28T01:40:06.286Z,89.78
2023-04-28T01:42:40.697Z,88.28
2023-04-28T01:45:14.498Z,90.50
2023-04-28T01:47:46.109Z,89.10
2023-04-28T01:50:18.276Z,90.38
2023-04-28T01:52:49.978Z,90.67
2023-04-28T01:55:21.686Z,89.90
2023-04-28T01:57:53.343Z,91.00
2023-04-28T02:00:25.094Z,90.39
2023-04-28T02:02:56.805Z,91.64
2023-04-28T02:05:28.610Z,90.98
2023-04-28T02:08:00.435Z,89.96
2023-04-28T02:10:32.230Z,91.52
2023-04-28T02:13:03.848Z,92.20
2023-04-28T02:15:40.673Z,91.40
2023-04-28T02:18:12.314Z,93.14
2023-04-28T02:20:43.936Z,93.13
2023-04-28T02:23:15.625Z,91.37
2023-04-28T02:25:47.410Z,92.30
2023-04-28T02:28:19.655Z,91.76
2023-04-28T02:30:51.345Z,91.77
2023-04-28T02:33:23.067Z,93.00
2023-04-28T02:36:04.738Z,91.49
2023-04-28T02:38:41.788Z,93.67
2023-04-28T02:41:15.128Z,92.49
2023-04-28T02:43:46.826Z,93.26
2023-04-28T02:46:18.590Z,94.32
2023-04-28T02:48:50.338Z,92.33
2023-04-28T02:51:22.169Z,94.47
2023-04-28T02:53:53.943Z,93.53
2023-04-28T02:56:26.065Z,93.16
2023-04-28T02:58:57.768Z,95.00
2023-04-28T03:01:29.535Z,94.32
2023-04-28T03:04:01.550Z,95.05
2023-04-28T03:06:33.844Z,95.48
2023-04-28T03:09:05.695Z,95.90
2023-04-28T03:11:37.355Z,94.25
2023-04-28T03:14:11.357Z,95.21
2023-04-28T03:16:43.188Z,94.32
2023-04-28T03:19:17.566Z,95.76
2023-04-28T03:21:49.606Z,94.97
2023-04-28T03:24:25.956Z,94.88
2023-04-28T03:26:57.640Z,94.16
2023-04-28T03:29:29.265Z,96.12
2023-04-28T03:32:01.445Z,94.28
2023-04-28T03:34:38.674Z,94.63
2023-04-28T03:37:10.383Z,95.58
2023-04-28T03:39:44.711Z,95.70
2023-04-28T03:42:16.378Z,96.53
2023-04-28T03:44:47.972Z,95.74
2023-04-28T03:47:19.613Z,94.87
2023-04-28T03:49:54.083Z,94.15
2023-04-28T03:52:26.354Z,95.35
2023-04-28T03:55:00.259Z,95.18
2023-04-28T03:57:37.614Z,95.09
2023-04-28T04:00:10.192Z,94.16
2023-04-28T04:02:41.967Z,94.55
2023-04-28T04:20:19.204Z,91.46
2023-04-28T04:22:54.006Z,92.33
2023-04-28T04:25:25.709Z,93.35
2023-04-28T04:27:57.276Z,94.08
2023-04-28T04:30:29.076Z,92.73
2023-04-28T04:33:00.825Z,94.10
2023-04-28T04:35:32.891Z,94.51
2023-04-28T04:38:04.523Z,94.23
2023-04-28T04:40:38.841Z,95.12
2023-04-28T04:43:10.800Z,94.34
2023-04-28T04:45:42.382Z,94.01
2023-04-28T04:48:14.331Z,94.79
2023-04-28T04:50:47.112Z,95.83
2023-04-28T04:53:21.365Z,95.17
2023-04-28T04:55:52.998Z,95.65
2023-04-28T04:58:24.909Z,95.32
2023-04-28T05:00:56.520Z,95.73
2023-04-28T05:03:33.804Z,95.26
2023-04-28T05:06:05.634Z,95.60
2023-04-28T05:08:37.188Z,96.36
2023-04-28T05:11:08.888Z,95.41
2023-04-28T05:13:40.975Z,96.00
2023-04-28T05:16:15.491Z,95.61
2023-04-28T05:18:47.384Z,94.77
2023-04-28T05:21:19.063Z,95.34
2023-04-28T05:23:50.884Z,95.51
2023-04-28T05:26:22.886Z,94.99
2023-04-28T05:28:54.563Z,94.68
2023-04-28T05:31:26.472Z,95.49
2023-04-28T05:33:59.040Z,94.86
2023-04-28T05:36:31.889Z,94.61
2023-04-28T05:39:05.775Z,94.32
2023-04-28T05:41:37.445Z,93.67
2023-04-28T05:44:09.462Z,93.97
2023-04-28T05:46:41.404Z,93.76
2023-04-28T05:49:13.163Z,94.44
2023-04-28T05:51:47.016Z,94.56
2023-04-28T05:54:19.041Z,94.48
2023-04-28T05:56:54.190Z,93.95
2023-04-28T05:59:25.995Z,93.04
2023-04-28T06:01:57.948Z,92.82
2023-04-28T06:04:30.037Z,92.21
2023-04-28T06:07:02.137Z,92.03
2023-04-28T06:09:33.754Z,91.90
2023-04-28T06:12:07.980Z,91.63
2023-04-28T06:14:41.963Z,90.70
2023-04-28T06:17:13.789Z,90.66
2023-04-28T06:19:45.714Z,88.74
2023-04-28T06:22:17.327Z,87.71
2023-04-28T06:24:49.088Z,85.93
2023-04-28T06:27:20.791Z,85.02
2023-04-28T06:29:52.553Z,83.11
2023-04-28T06:32:24.217Z,78.10
2023-04-28T06:34:57.875Z,74.61
2023-04-28T06:37:30.242Z,71.09
2023-04-28T06:40:01.995Z,69.08
2023-04-28T06:42:34.428Z,63.04
2023-04-28T06:45:06.660Z,62.62
2023-04-28T06:47:40.713Z,60.76
2023-04-28T06:50:12.486Z,60.00
2023-04-28T06:52:44.172Z,55.89
2023-04-28T06:55:17.394Z,49.79
2023-04-28T06:57:49.096Z,50.51
2023-04-28T07:00:21.048Z,47.17
2023-04-28T07:02:55.248Z,47.73
2023-04-28T07:05:27.841Z,44.96
2023-04-28T07:07:59.461Z,43.96
2023-04-28T07:10:31.286Z,44.05
2023-04-28T07:13:02.939Z,40.27
2023-04-28T07:15:34.907Z,40.26
2023-04-28T07:18:07.479Z,38.47
2023-04-28T07:20:39.248Z,40.68
2023-04-28T07:23:10.869Z,39.58
2023-04-28T07:25:43.065Z,39.82
2023-04-28T07:28:14.619Z,37.30
2023-04-28T07:30:46.772Z,37.50
2023-04-28T07:33:18.931Z,33.01
2023-04-28T07:35:52.657Z,33.17
2023-04-28T07:38:24.644Z,33.28
2023-04-28T07:40:58.517Z,30.51
2023-04-28T07:43:30.468Z,31.23
2023-04-28T07:46:02.310Z,31.02
2023-04-28T07:48:35.150Z,29.76
2023-04-28T07:51:06.814Z,28.04
2023-04-28T07:53:38.484Z,27.30
2023-04-28T07:56:10.081Z,28.58
2023-04-28T07:58:41.763Z,27.74
2023-04-28T08:01:16.255Z,27.57
2023-04-28T08:03:48.084Z,28.70
2023-04-28T08:06:20.158Z,26.49
2023-04-28T08:08:51.776Z,26.42
2023-04-28T08:11:23.437Z,25.91
2023-04-28T08:13:55.334Z,26.56
2023-04-28T08:16:27.796Z,27.31
2023-04-28T08:19:00.517Z,27.84
2023-04-28T08:21:32.895Z,29.08
2023-04-28T08:24:04.613Z,26.17
2023-04-28T08:26:37.388Z,26.28
2023-04-28T08:29:09.029Z,27.35
2023-04-28T08:31:40.673Z,29.06
2023-04-28T08:34:14.043Z,30.39
2023-04-28T08:36:47.647Z,31.14
2023-04-28T08:39:20.796Z,32.47
2023-04-28T08:41:56.864Z,32.45
2023-04-28T08:44:28.420Z,30.21
2023-04-28T08:47:02.137Z,30.01
2023-04-28T08:49:38.361Z,30.48
2023-04-28T08:52:12.529Z,31.42
2023-04-28T08:54:45.054Z,32.08
2023-04-28T08:57:18.547Z,32.96
2023-04-28T08:59:50.485Z,34.07
2023-04-28T09:02:22.724Z,34.87
2023-04-28T09:04:54.743Z,36.14
2023-04-28T09:07:26.567Z,37.11
2023-04-28T09:10:20.942Z,38.29
2023-04-28T09:12:55.865Z,39.44
2023-04-28T09:15:33.269Z,40.07
2023-04-28T09:18:08.775Z,40.67
2023-04-28T09:20:40.832Z,40.89
2023-04-28T09:23:15.213Z,40.57
2023-04-28T09:25:56.218Z,40.78
2023-04-28T09:28:28.532Z,40.47
2023-04-28T09:31:00.955Z,38.44
2023-04-28T09:33:32.598Z,34.69
2023-04-28T09:36:04.462Z,32.13
2023-04-28T09:38:44.080Z,29.47
2023-04-28T09:41:16.493Z,27.37
2023-04-28T09:43:48.165Z,26.33
2023-04-28T09:46:29.587Z,25.92
2023-04-28T09:49:02.600Z,25.33
2023-04-28T09:51:36.933Z,27.35
2023-04-28T09:54:09.093Z,27.71
2023-04-28T09:56:42.600Z,28.99
2023-04-28T09:59:15.048Z,31.04
2023-04-28T10:01:47.217Z,31.82
2023-04-28T10:04:19.638Z,32.51
2023-04-28T10:06:51.760Z,33.71
2023-04-28T10:09:27.614Z,34.57
2023-04-28T10:11:59.925Z,34.94
2023-04-28T10:14:32.217Z,35.50
2023-04-28T10:17:06.218Z,36.06
2023-04-28T10:19:38.019Z,36.50
2023-04-28T10:22:47.380Z,36.87
2023-04-28T10:25:26.771Z,37.55
2023-04-28T10:28:00.430Z,37.91
2023-04-28T10:30:36.024Z,37.70
2023-04-28T10:33:13.688Z,36.88
2023-04-28T10:35:47.577Z,36.15
2023-04-28T10:38:23.556Z,34.85
2023-04-28T10:40:55.548Z,35.69
2023-04-28T10:43:32.900Z,35.11
2023-04-28T10:46:06.703Z,35.10
2023-04-28T10:48:52.619Z,35.16
2023-04-28T10:51:25.691Z,35.63
2023-04-28T10:54:00.388Z,36.18
2023-04-28T10:56:34.201Z,36.71
2023-04-28T10:59:25.129Z,37.70
2023-04-28T11:02:35.538Z,37.16
2023-04-28T11:05:12.265Z,36.82
2023-04-28T11:08:19.111Z,36.58
2023-04-28T11:11:18.895Z,35.27
2023-04-28T11:13:50.771Z,35.43
2023-04-28T11:16:25.029Z,35.76
2023-04-28T11:19:04.992Z,35.57
2023-04-28T11:21:36.697Z,36.06
2023-04-28T11:24:10.128Z,35.42
2023-04-28T11:26:42.490Z,36.49
2023-04-28T11:29:16.607Z,36.49
2023-04-28T11:31:51.808Z,36.39
2023-04-28T11:34:24.915Z,36.39
2023-04-28T11:36:56.705Z,36.08
2023-04-28T11:39:33.371Z,37.05
2023-04-28T11:42:11.411Z,36.19
2023-04-28T11:44:50.751Z,35.76
2023-04-28T11:47:34.779Z,35.44
2023-04-28T11:50:06.950Z,35.53
2023-04-28T11:52:50.771Z,35.85
2023-04-28T11:55:23.270Z,36.69
2023-04-28T11:58:24.060Z,36.75
2023-04-28T12:01:12.636Z,34.45
2023-04-28T12:03:48.236Z,33.40
2023-04-28T12:06:20.115Z,33.72
2023-04-28T12:08:52.726Z,33.50
2023-04-28T12:11:25.625Z,33.80
2023-04-28T12:14:09.125Z,32.94
2023-04-28T12:16:44.063Z,32.81
2023-04-28T12:19:16.232Z,33.07
2023-04-28T12:22:05.298Z,33.20
2023-04-28T12:24:36.899Z,33.67
2023-04-28T12:27:22.148Z,34.67
2023-04-28T12:29:54.503Z,34.01
2023-04-28T12:32:40.046Z,34.97
2023-04-28T12:35:11.896Z,34.35
2023-04-28T12:37:45.127Z,33.52
2023-04-28T12:40:16.709Z,34.33
2023-04-28T12:42:48.461Z,35.35
2023-04-28T12:45:23.119Z,36.02
2023-04-28T12:47:57.007Z,34.70
2023-04-28T12:50:33.208Z,34.45
2023-04-28T12:53:05.698Z,35.62
2023-04-28T12:55:40.113Z,34.37
2023-04-28T12:58:11.842Z,33.84
2023-04-28T13:00:43.737Z,33.17
2023-04-28T13:03:15.868Z,34.66
2023-04-28T13:05:47.665Z,34.82
2023-04-28T13:08:19.325Z,33.99
2023-04-28T13:10:51.378Z,33.70
2023-04-28T13:13:22.945Z,34.07
2023-04-28T13:15:54.785Z,35.10
2023-04-28T13:18:26.870Z,34.02
2023-04-28T13:20:59.074Z,34.69
2023-04-28T13:23:35.487Z,33.73
2023-04-28T13:26:10.026Z,34.37
2023-04-28T13:28:43.965Z,34.06
2023-04-28T13:31:19.456Z,34.90
2023-04-28T13:33:53.333Z,35.13
2023-04-28T13:36:25.721Z,35.19
2023-04-28T13:39:01.596Z,35.01
2023-04-28T13:41:36.106Z,34.47
2023-04-28T13:44:07.766Z,34.60
2023-04-28T13:46:39.523Z,35.65
2023-04-28T13:49:11.128Z,36.39
2023-04-28T13:51:48.530Z,35.23
2023-04-28T13:54:21.329Z,35.42
2023-04-28T13:56:52.906Z,35.08
2023-04-28T13:59:24.596Z,34.64
2023-04-28T14:01:56.234Z,34.89
2023-04-28T14:04:28.032Z,36.71
2023-04-28T14:06:59.905Z,37.17
2023-04-28T14:09:32.608Z,37.66
2023-04-28T14:12:04.495Z,39.19
2023-04-28T14:14:39.727Z,39.95
2023-04-28T14:17:12.740Z,41.42
2023-04-28T14:19:44.640Z,42.76
2023-04-28T14:22:16.305Z,44.11
2023-04-28T14:24:48.154Z,44.10
2023-04-28T14:27:24.578Z,43.10
2023-04-28T14:29:58.281Z,43.77
2023-04-28T14:32:29.949Z,44.49
2023-04-28T14:35:05.752Z,45.16
2023-04-28T14:37:37.509Z,45.68
2023-04-28T14:40:12.095Z,45.83
2023-04-28T14:42:48.486Z,46.36
2023-04-28T14:45:22.655Z,47.99
2023-04-28T14:47:54.278Z,48.96
2023-04-28T14:50:26.341Z,48.46
2023-04-28T14:53:08.301Z,48.55
2023-04-28T14:55:39.960Z,48.68
2023-04-28T14:58:12.671Z,48.53
2023-04-28T15:00:46.404Z,47.97
2023-04-28T15:03:18.154Z,48.36
2023-04-28T15:05:49.925Z,47.27
2023-04-28T15:08:21.837Z,47.27
2023-04-28T15:10:53.985Z,46.35
2023-04-28T15:13:27.995Z,45.81
2023-04-28T15:16:00.489Z,46.56
2023-04-28T15:18:32.529Z,48.03
2023-04-28T15:21:04.274Z,48.68
2023-04-28T15:23:36.128Z,47.26
2023-04-28T15:26:08.621Z,47.13
2023-04-28T15:28:40.682Z,47.38
2023-04-28T15:31:15.323Z,47.55
2023-04-28T15:33:46.989Z,47.41
2023-04-28T15:36:19.969Z,47.56
2023-04-28T15:38:52.211Z,46.87
2023-04-28T15:41:23.832Z,46.65
2023-04-28T15:43:57.383Z,47.46
2023-04-28T15:46:29.473Z,48.11
2023-04-28T15:49:06.716Z,48.08
2023-04-28T15:51:41.298Z,48.08
2023-04-28T15:54:13.180Z,47.67
2023-04-28T15:56:45.230Z,48.34
2023-04-28T15:59:19.144Z,47.35
2023-04-28T16:01:51.429Z,47.78
2023-04-28T16:04:23.188Z,48.47
2023-04-28T16:06:55.912Z,48.80
2023-04-28T16:09:27.539Z,48.63
2023-04-28T16:12:00.919Z,48.76
2023-04-28T16:14:33.601Z,48.17
2023-04-28T16:17:05.264Z,48.34
2023-04-28T16:19:37.208Z,49.34
2023-04-28T16:22:15.621Z,49.37
2023-04-28T16:24:48.065Z,49.62
2023-04-28T16:27:20.051Z,50.37
2023-04-28T16:29:51.801Z,50.57
2023-04-28T16:32:23.612Z,51.47
2023-04-28T16:34:58.652Z,52.01
2023-04-28T16:37:30.907Z,52.55
2023-04-28T16:40:05.375Z,52.64
2023-04-28T16:42:40.672Z,52.28
2023-04-28T16:45:15.800Z,52.90
2023-04-28T16:47:47.593Z,53.73
2023-04-28T16:50:19.486Z,54.66
2023-04-28T16:52:51.168Z,54.08
2023-04-28T16:55:22.978Z,53.99
2023-04-28T16:57:54.711Z,54.20
2023-04-28T17:00:26.446Z,54.67
2023-04-28T17:02:58.202Z,54.45
2023-04-28T17:05:32.310Z,54.85
2023-04-28T17:08:04.226Z,55.62
2023-04-28T17:10:41.632Z,56.51
2023-04-28T17:13:13.285Z,56.47
2023-04-28T17:15:45.173Z,57.40
2023-04-28T17:18:16.850Z,59.57
2023-04-28T17:20:49.557Z,59.14
2023-04-28T17:23:22.020Z,60.78
2023-04-28T17:25:54.280Z,61.62
2023-04-28T17:28:26.142Z,63.88
2023-04-28T17:30:58.072Z,64.84
2023-04-28T17:33:29.790Z,66.05
2023-04-28T17:36:05.095Z,66.21
2023-04-28T17:38:36.709Z,65.55
2023-04-28T17:41:08.747Z,65.41
2023-04-28T17:43:40.838Z,64.78
2023-04-28T17:46:14.921Z,67.91
2023-04-28T17:48:46.778Z,66.70
2023-04-28T17:51:19.040Z,68.54
2023-04-28T17:53:53.638Z,65.61
2023-04-28T17:56:25.370Z,69.41
2023-04-28T17:58:57.048Z,68.20
2023-04-28T18:01:31.725Z,69.93
2023-04-28T18:04:04.177Z,71.45
2023-04-28T18:06:35.949Z,70.42
2023-04-28T18:09:07.613Z,71.02
2023-04-28T18:11:39.452Z,72.69
2023-04-28T18:14:11.196Z,69.44
2023-04-28T18:16:42.831Z,71.49
2023-04-28T18:19:14.664Z,71.25
2023-04-28T18:21:46.296Z,71.55
2023-04-28T18:24:18.574Z,72.75
2023-04-28T18:26:50.657Z,71.29
2023-04-28T18:29:22.323Z,73.16
2023-04-28T18:31:55.242Z,74.49
2023-04-28T18:34:28.500Z,72.13
2023-04-28T18:37:00.767Z,72.14
2023-04-28T18:39:32.375Z,72.96
2023-04-28T18:42:04.454Z,74.01
2023-04-28T18:44:36.902Z,73.71
2023-04-28T18:47:08.941Z,72.89
2023-04-28T18:49:41.105Z,75.17
2023-04-28T18:52:12.850Z,74.53
2023-04-28T18:54:46.937Z,76.44
2023-04-28T18:57:19.249Z,74.30
2023-04-28T18:59:53.746Z,76.33
2023-04-28T19:02:25.522Z,76.62
2023-04-28T19:04:57.922Z,77.17
2023-04-28T19:07:29.813Z,78.43
2023-04-28T19:10:01.662Z,77.39
2023-04-28T19:12:33.565Z,75.44
2023-04-28T19:15:06.833Z,77.73
2023-04-28T19:17:38.622Z,77.71
2023-04-28T19:20:10.616Z,80.51
2023-04-28T19:22:43.882Z,79.64
2023-04-28T19:25:16.813Z,79.96
2023-04-28T19:27:48.599Z,81.29
2023-04-28T19:30:20.509Z,81.59
2023-04-28T19:32:53.122Z,81.97
2023-04-28T19:35:24.907Z,83.25
2023-04-28T19:37:56.513Z,84.38
2023-04-28T19:40:29.093Z,83.96
2023-04-28T19:43:00.755Z,84.21
2023-04-28T19:45:32.383Z,83.12
2023-04-28T19:48:04.870Z,84.07
2023-04-28T19:50:37.495Z,84.30
2023-04-28T19:53:09.563Z,85.44
2023-04-28T19:55:41.192Z,85.43
2023-04-28T20:01:35.877Z,85.88
2023-04-28T20:04:08.485Z,86.68
2023-04-28T20:06:40.616Z,85.48
2023-04-28T20:09:12.502Z,86.88
2023-04-28T20:11:46.300Z,87.78
2023-04-28T20:14:18.000Z,86.34
2023-04-28T20:16:49.827Z,88.87
2023-04-28T20:19:21.512Z,87.14
2023-04-28T20:21:53.210Z,89.19
2023-04-28T20:24:24.888Z,86.95
2023-04-28T20:26:56.753Z,87.99
2023-04-28T20:29:31.678Z,87.04
2023-04-28T20:32:05.004Z,87.03
2023-04-28T20:34:37.752Z,86.78
2023-04-28T20:37:10.116Z,85.85
2023-04-28T20:39:41.835Z,87.59
2023-04-28T20:42:14.069Z,86.97
2023-04-28T20:44:46.744Z,86.36
2023-04-28T20:47:19.186Z,86.56
2023-04-28T20:49:51.131Z,87.73
2023-04-28T20:52:25.503Z,87.66
2023-04-28T20:54:57.211Z,86.44
2023-04-28T20:57:29.144Z,87.33
2023-04-28T21:00:00.901Z,90.30
2023-04-28T21:02:36.617Z,90.18
2023-04-28T21:05:11.706Z,90.08
2023-04-28T21:07:44.510Z,89.58
2023-04-28T21:10:16.909Z,88.97
2023-04-28T21:12:48.998Z,89.63
2023-04-28T21:15:20.768Z,89.47
2023-04-28T21:17:52.520Z,90.66
2023-04-28T21:20:24.569Z,89.07
2023-04-28T21:22:56.363Z,89.14
2023-04-28T21:25:28.491Z,88.93
2023-04-28T21:28:01.814Z,89.72
2023-04-28T21:30:33.766Z,89.09
2023-04-28T21:33:05.522Z,87.70
2023-04-28T21:35:37.567Z,88.98
2023-04-28T21:38:11.026Z,88.46
2023-04-28T21:40:42.696Z,88.75
2023-04-28T21:43:14.362Z,88.91
2023-04-28T21:45:46.059Z,89.28
2023-04-28T21:48:18.704Z,89.32
2023-04-28T21:50:50.503Z,89.68
2023-04-28T21:53:22.129Z,90.00
2023-04-28T21:55:56.241Z,89.66
2023-04-28T21:58:28.016Z,89.32
2023-04-28T22:01:03.285Z,89.74
2023-04-28T22:03:36.230Z,90.38
2023-04-28T22:06:09.100Z,90.27
2023-04-28T22:08:40.780Z,90.54
2023-04-28T22:11:12.813Z,91.00
2023-04-28T22:13:44.470Z,91.51
2023-04-28T22:16:16.426Z,91.07
2023-04-28T22:18:48.029Z,91.32
2023-04-28T22:21:20.208Z,91.00
2023-04-28T22:23:51.958Z,91.54
2023-04-28T22:26:24.393Z,92.13
2023-04-28T22:28:56.459Z,91.45
2023-04-28T22:31:28.149Z,92.79
2023-04-28T22:34:00.107Z,93.01
2023-04-28T22:36:34.494Z,93.62
2023-04-28T22:39:06.465Z,93.42
2023-04-28T22:41:38.221Z,93.68
2023-04-28T22:44:10.381Z,94.00
2023-04-28T22:46:42.209Z,94.03
2023-04-28T22:49:16.997Z,94.66
2023-04-28T22:51:48.719Z,94.74
2023-04-28T22:54:23.473Z,94.37
2023-04-28T22:56:55.218Z,95.23
2023-04-28T22:59:27.276Z,95.03
2023-04-28T23:01:59.058Z,94.48
2023-04-28T23:04:31.081Z,94.61
2023-04-28T23:07:03.051Z,94.96
2023-04-28T23:09:36.284Z,93.58
2023-04-28T23:12:08.417Z,93.57
2023-04-28T23:14:40.187Z,93.79
2023-04-28T23:17:14.917Z,94.05
2023-04-28T23:19:46.604Z,93.39
2023-04-28T23:22:21.055Z,93.45
2023-04-28T23:24:52.852Z,93.10
2023-04-28T23:27:24.485Z,92.52
2023-04-28T23:29:56.156Z,93.06
2023-04-28T23:32:27.849Z,93.13
2023-04-28T23:34:59.666Z,92.60
2023-04-28T23:37:31.226Z,93.16
2023-04-28T23:40:04.201Z,92.38
2023-04-28T23:42:36.367Z,93.05
2023-04-28T23:45:09.869Z,92.74
2023-04-28T23:47:42.060Z,92.39
2023-04-28T23:50:14.014Z,92.12
2023-04-28T23:52:46.385Z,92.48
2023-04-28T23:55:20.588Z,92.34
2023-04-28T23:57:52.262Z,92.84
